createdAt,value
2022-09-30T00:00:43.200Z,11.90
2022-09-30T00:01:46.425Z,11.90
2022-09-30T00:02:49.377Z,11.90
2022-09-30T00:03:51.498Z,11.90
2022-09-30T00:04:54.413Z,12.00
2022-09-30T00:05:57.676Z,12.00
2022-09-30T00:07:00.635Z,12.00
2022-09-30T00:08:02.735Z,12.00
2022-09-30T00:09:06.251Z,12.00
2022-09-30T00:10:08.855Z,12.00
2022-09-30T00:11:16.285Z,11.90
2022-09-30T00:12:18.262Z,11.90
2022-09-30T00:13:21.145Z,11.90
2022-09-30T00:14:25.193Z,11.90
2022-09-30T00:15:28.291Z,11.80
2022-09-30T00:16:34.016Z,11.90
2022-09-30T00:17:36.030Z,11.90
2022-09-30T00:18:39.589Z,12.00
2022-09-30T00:19:41.653Z,12.00
2022-09-30T00:20:44.550Z,12.00
2022-09-30T00:21:46.468Z,12.00
2022-09-30T00:22:49.389Z,12.00
2022-09-30T00:23:51.877Z,12.00
2022-09-30T00:24:54.789Z,12.00
2022-09-30T00:25:58.836Z,12.00
2022-09-30T00:27:03.470Z,12.00
2022-09-30T00:28:07.887Z,12.00
2022-09-30T00:29:11.680Z,11.90
2022-09-30T00:30:13.585Z,12.00
2022-09-30T00:31:19.550Z,12.00
2022-09-30T00:32:21.650Z,12.00
2022-09-30T00:33:24.533Z,12.00
2022-09-30T00:34:26.500Z,12.00
2022-09-30T00:35:29.415Z,12.00
2022-09-30T00:36:31.325Z,12.00
2022-09-30T00:37:34.238Z,12.00
2022-09-30T00:38:36.252Z,12.10
2022-09-30T00:39:39.151Z,12.00
2022-09-30T00:40:41.501Z,12.00
2022-09-30T00:41:45.492Z,12.00
2022-09-30T00:42:49.432Z,12.00
2022-09-30T00:43:53.560Z,12.00
2022-09-30T00:44:57.000Z,12.00
2022-09-30T00:46:01.071Z,11.90
2022-09-30T00:47:03.037Z,11.90
2022-09-30T00:48:09.652Z,11.90
2022-09-30T00:49:15.194Z,11.80
2022-09-30T00:50:38.030Z,11.70
2022-09-30T00:51:45.199Z,11.90
2022-09-30T00:52:52.666Z,11.90
2022-09-30T00:53:58.626Z,11.90
2022-09-30T00:55:04.730Z,11.90
2022-09-30T00:56:10.647Z,11.90
2022-09-30T00:57:12.714Z,12.00
2022-09-30T00:58:21.604Z,12.10
2022-09-30T00:59:28.237Z,12.00
2022-09-30T01:00:30.675Z,12.00
2022-09-30T01:01:33.710Z,12.00
2022-09-30T01:02:36.457Z,12.00
2022-09-30T01:03:43.918Z,12.20
2022-09-30T01:04:46.473Z,12.00
2022-09-30T01:05:50.289Z,12.00
2022-09-30T01:06:52.639Z,12.00
2022-09-30T01:07:58.870Z,11.90
2022-09-30T01:09:02.326Z,11.90
2022-09-30T01:10:04.786Z,12.00
2022-09-30T01:11:08.481Z,11.90
2022-09-30T01:12:14.411Z,11.80
2022-09-30T01:13:20.118Z,11.80
2022-09-30T01:14:24.951Z,11.80
2022-09-30T01:15:41.151Z,11.80
2022-09-30T01:16:54.423Z,11.80
2022-09-30T01:18:09.404Z,11.80
2022-09-30T01:19:27.074Z,11.80
2022-09-30T01:20:56.466Z,11.80
2022-09-30T01:22:25.316Z,11.70
2022-09-30T01:23:48.419Z,11.70
2022-09-30T01:25:18.320Z,11.80
2022-09-30T01:26:58.581Z,11.80
2022-09-30T01:28:31.891Z,11.80
2022-09-30T01:30:08.228Z,11.80
2022-09-30T01:31:23.084Z,11.90
2022-09-30T01:32:36.461Z,11.80
2022-09-30T01:33:47.289Z,11.90
2022-09-30T01:35:04.596Z,11.90
2022-09-30T01:36:25.131Z,11.80
2022-09-30T01:37:38.168Z,11.90
2022-09-30T01:38:49.518Z,11.90
2022-09-30T01:40:03.406Z,12.00
2022-09-30T01:41:11.161Z,11.90
2022-09-30T01:42:21.933Z,11.90
2022-09-30T01:43:32.168Z,11.90
2022-09-30T01:44:39.097Z,11.90
2022-09-30T01:45:46.483Z,11.90
2022-09-30T01:46:53.136Z,11.90
2022-09-30T01:48:01.749Z,11.80
2022-09-30T01:49:12.481Z,11.80
2022-09-30T01:50:21.157Z,11.80
2022-09-30T01:51:31.255Z,11.80
2022-09-30T01:52:40.698Z,11.80
2022-09-30T01:53:49.450Z,11.70
2022-09-30T01:55:00.391Z,11.90
2022-09-30T01:56:07.601Z,11.90
2022-09-30T01:57:16.727Z,11.90
2022-09-30T01:58:26.626Z,11.90
2022-09-30T01:59:34.588Z,11.90
2022-09-30T02:00:42.120Z,12.00
2022-09-30T02:01:49.007Z,12.00
2022-09-30T02:02:57.828Z,12.00
2022-09-30T02:04:04.939Z,11.90
2022-09-30T02:05:12.850Z,12.00
2022-09-30T02:06:18.757Z,12.00
2022-09-30T02:07:26.290Z,12.00
2022-09-30T02:08:34.265Z,12.00
2022-09-30T02:09:42.024Z,12.00
2022-09-30T02:10:48.270Z,11.90
2022-09-30T02:11:52.614Z,11.90
2022-09-30T02:12:58.188Z,11.90
2022-09-30T02:14:05.466Z,11.90
2022-09-30T02:15:12.206Z,11.90
2022-09-30T02:16:21.644Z,12.00
2022-09-30T02:17:28.960Z,12.00
2022-09-30T02:18:39.199Z,12.00
2022-09-30T02:19:43.749Z,12.00
2022-09-30T02:20:50.147Z,12.00
2022-09-30T02:21:57.313Z,12.00
2022-09-30T02:23:04.969Z,12.00
2022-09-30T02:24:10.426Z,11.90
2022-09-30T02:25:18.819Z,11.90
2022-09-30T02:26:25.029Z,11.90
2022-09-30T02:27:33.241Z,11.90
2022-09-30T02:28:39.411Z,11.90
2022-09-30T02:29:46.818Z,12.00
2022-09-30T02:30:53.159Z,11.80
2022-09-30T02:32:02.353Z,11.80
2022-09-30T02:33:10.401Z,11.80
2022-09-30T02:34:19.797Z,11.80
2022-09-30T02:35:26.857Z,11.90
2022-09-30T02:36:32.354Z,11.90
2022-09-30T02:37:38.965Z,12.00
2022-09-30T02:38:43.855Z,11.90
2022-09-30T02:39:53.263Z,11.90
2022-09-30T02:40:58.890Z,11.90
2022-09-30T02:42:08.884Z,11.90
2022-09-30T02:43:11.310Z,11.90
2022-09-30T02:44:15.299Z,11.90
2022-09-30T02:45:20.729Z,11.90
2022-09-30T02:46:30.960Z,11.90
2022-09-30T02:47:43.730Z,11.90
2022-09-30T02:48:54.097Z,11.80
2022-09-30T02:50:05.609Z,11.80
2022-09-30T02:51:16.689Z,11.70
2022-09-30T02:52:27.295Z,11.80
2022-09-30T02:53:36.952Z,11.80
2022-09-30T02:54:48.595Z,11.80
2022-09-30T02:56:07.533Z,11.80
2022-09-30T02:57:20.194Z,11.80
2022-09-30T02:58:25.993Z,11.80
2022-09-30T02:59:29.375Z,11.80
2022-09-30T03:00:31.580Z,11.70
2022-09-30T03:01:34.604Z,11.70
2022-09-30T03:02:36.653Z,11.70
2022-09-30T03:03:42.341Z,11.70
2022-09-30T03:04:46.161Z,13.80
2022-09-30T03:05:52.277Z,11.60
2022-09-30T03:06:55.334Z,11.60
2022-09-30T03:07:58.507Z,11.60
2022-09-30T03:09:00.563Z,11.80
2022-09-30T03:10:12.748Z,11.60
2022-09-30T03:11:17.679Z,11.60
2022-09-30T03:12:35.377Z,11.60
2022-09-30T03:14:17.910Z,11.60
2022-09-30T03:15:45.756Z,11.60
2022-09-30T03:17:21.368Z,11.70
2022-09-30T03:18:50.275Z,11.70
2022-09-30T03:20:25.487Z,11.70
2022-09-30T03:21:52.994Z,11.70
2022-09-30T03:23:16.869Z,11.70
2022-09-30T03:24:52.322Z,11.70
2022-09-30T03:26:03.696Z,11.70
2022-09-30T03:27:14.651Z,11.70
2022-09-30T03:28:25.229Z,11.70
2022-09-30T03:29:39.664Z,11.70
2022-09-30T03:30:51.357Z,11.70
2022-09-30T03:32:04.365Z,11.60
2022-09-30T03:33:10.825Z,11.50
2022-09-30T03:34:21.654Z,11.60
2022-09-30T03:35:31.107Z,11.60
2022-09-30T03:36:42.437Z,11.70
2022-09-30T03:37:50.375Z,11.50
2022-09-30T03:39:01.273Z,11.60
2022-09-30T03:40:10.205Z,11.60
2022-09-30T03:41:20.921Z,11.70
2022-09-30T03:42:27.033Z,11.50
2022-09-30T03:43:34.559Z,11.60
2022-09-30T03:44:41.601Z,11.60
2022-09-30T03:45:51.705Z,11.60
2022-09-30T03:46:57.442Z,11.50
2022-09-30T03:48:05.142Z,11.50
2022-09-30T03:49:10.434Z,11.50
2022-09-30T03:50:16.394Z,11.50
2022-09-30T03:51:18.575Z,11.40
2022-09-30T03:52:26.193Z,11.40
2022-09-30T03:53:28.609Z,11.30
2022-09-30T03:54:33.313Z,11.30
2022-09-30T03:55:47.715Z,11.20
2022-09-30T03:56:50.625Z,11.20
2022-09-30T03:57:54.390Z,11.20
2022-09-30T03:58:57.998Z,11.20
2022-09-30T04:00:00.602Z,11.20
2022-09-30T04:01:03.598Z,11.20
2022-09-30T04:02:06.978Z,11.20
2022-09-30T04:03:10.006Z,11.10
2022-09-30T04:04:13.352Z,11.20
2022-09-30T04:05:16.341Z,11.30
2022-09-30T04:06:19.426Z,11.20
2022-09-30T04:07:23.749Z,11.20
2022-09-30T04:08:28.961Z,11.20
2022-09-30T04:09:33.751Z,11.20
2022-09-30T04:10:35.760Z,11.20
2022-09-30T04:11:38.687Z,11.20
2022-09-30T04:12:40.608Z,11.20
2022-09-30T04:13:43.505Z,11.20
2022-09-30T04:14:45.418Z,11.20
2022-09-30T04:15:55.233Z,11.20
2022-09-30T04:16:57.569Z,11.20
2022-09-30T04:18:00.606Z,11.30
2022-09-30T04:19:02.974Z,11.30
2022-09-30T04:20:06.725Z,11.10
2022-09-30T04:21:10.200Z,11.10
2022-09-30T04:22:13.105Z,11.10
2022-09-30T04:23:16.961Z,11.10
2022-09-30T04:24:19.981Z,11.10
2022-09-30T04:25:21.880Z,11.10
2022-09-30T04:26:25.110Z,11.30
2022-09-30T04:27:27.396Z,11.10
2022-09-30T04:28:30.300Z,11.10
2022-09-30T04:29:32.222Z,11.10
2022-09-30T04:30:35.172Z,11.00
2022-09-30T04:31:38.121Z,11.10
2022-09-30T04:32:45.418Z,11.10
2022-09-30T04:33:48.666Z,10.90
2022-09-30T04:34:50.593Z,10.90
2022-09-30T04:35:55.429Z,10.90
2022-09-30T04:36:57.345Z,10.90
2022-09-30T04:38:00.278Z,10.80
2022-09-30T04:39:04.534Z,10.80
2022-09-30T04:40:10.205Z,10.90
2022-09-30T04:41:16.196Z,10.90
2022-09-30T04:42:19.139Z,10.90
2022-09-30T04:43:23.509Z,11.00
2022-09-30T04:44:26.406Z,10.90
2022-09-30T04:45:28.959Z,10.90
2022-09-30T04:46:31.916Z,10.90
2022-09-30T04:47:34.565Z,10.90
2022-09-30T04:48:37.474Z,10.80
2022-09-30T04:49:39.402Z,10.80
2022-09-30T04:50:43.054Z,10.70
2022-09-30T04:51:46.120Z,10.70
2022-09-30T04:52:49.175Z,10.70
2022-09-30T04:53:51.167Z,10.70
2022-09-30T04:54:55.458Z,10.70
2022-09-30T04:56:02.084Z,10.70
2022-09-30T04:57:04.138Z,10.70
2022-09-30T04:58:07.034Z,10.70
2022-09-30T04:59:10.115Z,10.60
2022-09-30T05:00:12.841Z,10.60
2022-09-30T05:01:18.913Z,10.70
2022-09-30T05:02:21.115Z,10.60
2022-09-30T05:03:24.046Z,10.80
2022-09-30T05:04:26.126Z,10.60
2022-09-30T05:05:29.166Z,10.60
2022-09-30T05:06:31.190Z,10.70
2022-09-30T05:07:34.073Z,10.60
2022-09-30T05:08:36.518Z,10.60
2022-09-30T05:09:39.479Z,10.60
2022-09-30T05:10:42.893Z,10.60
2022-09-30T05:11:45.838Z,10.60
2022-09-30T05:12:48.865Z,10.60
2022-09-30T05:13:51.952Z,10.60
2022-09-30T05:14:54.249Z,10.60
2022-09-30T05:15:57.382Z,10.60
2022-09-30T05:16:59.329Z,10.60
2022-09-30T05:18:02.237Z,10.60
2022-09-30T05:19:04.635Z,10.70
2022-09-30T05:20:10.802Z,10.60
2022-09-30T05:21:14.810Z,10.60
2022-09-30T05:22:16.938Z,10.60
2022-09-30T05:23:21.140Z,10.60
2022-09-30T05:24:24.069Z,10.60
2022-09-30T05:25:27.014Z,10.60
2022-09-30T05:26:30.283Z,10.50
2022-09-30T05:27:33.234Z,10.60
2022-09-30T05:28:35.261Z,10.60
2022-09-30T05:29:38.775Z,10.60
2022-09-30T05:30:41.978Z,10.50
2022-09-30T05:31:44.884Z,10.40
2022-09-30T05:32:46.834Z,10.40
2022-09-30T05:33:52.516Z,10.40
2022-09-30T05:34:56.607Z,10.40
2022-09-30T05:36:01.214Z,10.40
2022-09-30T05:37:03.117Z,10.40
2022-09-30T05:38:06.030Z,10.40
2022-09-30T05:39:07.938Z,10.50
2022-09-30T05:40:11.375Z,10.50
2022-09-30T05:41:14.834Z,10.40
2022-09-30T05:42:19.085Z,10.40
2022-09-30T05:43:21.037Z,10.40
2022-09-30T05:44:23.921Z,10.30
2022-09-30T05:45:26.631Z,10.30
2022-09-30T05:46:30.137Z,10.30
2022-09-30T05:47:32.122Z,10.30
2022-09-30T05:48:35.278Z,10.30
2022-09-30T05:49:37.249Z,10.40
2022-09-30T05:50:40.231Z,10.40
2022-09-30T05:51:43.234Z,10.40
2022-09-30T05:52:45.117Z,10.40
2022-09-30T05:53:48.097Z,10.50
2022-09-30T05:54:50.410Z,10.50
2022-09-30T05:55:53.614Z,10.50
2022-09-30T05:56:56.093Z,10.50
2022-09-30T05:58:00.358Z,10.40
2022-09-30T05:59:02.326Z,10.40
2022-09-30T06:00:06.086Z,10.40
2022-09-30T06:01:13.520Z,10.50
2022-09-30T06:02:17.229Z,10.50
2022-09-30T06:03:20.705Z,10.50
2022-09-30T06:04:23.672Z,10.60
2022-09-30T06:05:25.794Z,10.50
2022-09-30T06:06:28.726Z,10.50
2022-09-30T06:07:30.691Z,10.60
2022-09-30T06:08:33.883Z,10.50
2022-09-30T06:09:36.029Z,10.60
2022-09-30T06:10:41.793Z,10.60
2022-09-30T06:11:43.713Z,10.70
2022-09-30T06:12:46.603Z,10.70
2022-09-30T06:13:50.925Z,10.90
2022-09-30T06:14:52.842Z,10.80
2022-09-30T06:15:59.363Z,10.80
2022-09-30T06:17:02.333Z,10.90
2022-09-30T06:18:04.378Z,10.90
2022-09-30T06:19:07.362Z,10.80
2022-09-30T06:20:10.562Z,10.80
2022-09-30T06:21:16.173Z,10.90
2022-09-30T06:22:18.299Z,10.90
2022-09-30T06:23:21.297Z,11.00
2022-09-30T06:24:23.476Z,11.00
2022-09-30T06:25:26.669Z,11.00
2022-09-30T06:26:29.582Z,10.90
2022-09-30T06:27:33.198Z,10.90
2022-09-30T06:28:36.649Z,10.90
2022-09-30T06:29:40.928Z,10.80
2022-09-30T06:30:44.546Z,10.90
2022-09-30T06:31:47.473Z,11.00
2022-09-30T06:32:49.458Z,11.10
2022-09-30T06:33:54.393Z,11.00
2022-09-30T06:34:56.524Z,11.00
2022-09-30T06:35:59.730Z,11.00
2022-09-30T06:37:01.663Z,10.90
2022-09-30T06:38:04.744Z,10.90
2022-09-30T06:39:10.256Z,10.90
2022-09-30T06:40:21.288Z,10.90
2022-09-30T06:41:25.716Z,10.90
2022-09-30T06:42:28.644Z,10.90
2022-09-30T06:43:30.541Z,10.80
2022-09-30T06:44:37.754Z,10.90
2022-09-30T06:45:47.151Z,11.00
2022-09-30T06:46:53.819Z,10.90
2022-09-30T06:48:00.343Z,10.90
2022-09-30T06:49:12.995Z,10.80
2022-09-30T06:50:24.705Z,10.90
2022-09-30T06:51:29.178Z,10.90
2022-09-30T06:52:31.086Z,10.90
2022-09-30T06:53:35.509Z,10.90
2022-09-30T06:54:37.493Z,10.90
2022-09-30T06:55:40.567Z,10.80
2022-09-30T06:56:43.982Z,10.80
2022-09-30T06:57:47.985Z,10.90
2022-09-30T06:58:50.909Z,10.80
2022-09-30T06:59:52.822Z,10.80
2022-09-30T07:01:01.031Z,10.90
2022-09-30T07:02:04.086Z,10.90
2022-09-30T07:03:09.981Z,10.90
2022-09-30T07:04:12.381Z,10.90
2022-09-30T07:05:16.173Z,11.10
2022-09-30T07:06:19.085Z,11.00
2022-09-30T07:07:22.372Z,11.00
2022-09-30T07:08:25.888Z,11.00
2022-09-30T07:09:28.822Z,10.90
2022-09-30T07:10:30.775Z,11.00
2022-09-30T07:11:33.678Z,11.10
2022-09-30T07:12:36.545Z,11.10
2022-09-30T07:13:39.541Z,11.10
2022-09-30T07:14:42.475Z,11.10
2022-09-30T07:15:44.398Z,11.00
2022-09-30T07:16:48.705Z,11.10
2022-09-30T07:17:51.908Z,11.10
2022-09-30T07:18:54.925Z,11.00
2022-09-30T07:19:56.837Z,11.00
2022-09-30T07:20:59.751Z,11.10
2022-09-30T07:22:17.202Z,11.20
2022-09-30T07:23:25.790Z,11.20
2022-09-30T07:24:28.752Z,11.20
2022-09-30T07:25:31.695Z,11.20
2022-09-30T07:26:34.597Z,11.10
2022-09-30T07:27:36.983Z,11.10
2022-09-30T07:28:40.923Z,11.10
2022-09-30T07:30:07.816Z,11.20
2022-09-30T07:31:31.846Z,11.20
2022-09-30T07:32:36.482Z,11.20
2022-09-30T07:33:39.486Z,11.20
2022-09-30T07:34:43.075Z,11.10
2022-09-30T07:35:52.285Z,11.30
2022-09-30T07:36:55.177Z,11.30
2022-09-30T07:37:58.475Z,11.30
2022-09-30T07:39:14.937Z,11.30
2022-09-30T07:40:17.934Z,11.30
2022-09-30T07:41:24.465Z,11.30
2022-09-30T07:42:27.410Z,11.40
2022-09-30T07:43:38.559Z,11.40
2022-09-30T07:44:44.257Z,11.30
2022-09-30T07:45:46.426Z,11.40
2022-09-30T07:46:49.404Z,11.40
2022-09-30T07:47:53.907Z,11.40
2022-09-30T07:49:00.773Z,11.40
2022-09-30T07:50:04.052Z,11.40
2022-09-30T07:51:06.217Z,11.40
2022-09-30T07:52:11.497Z,11.30
2022-09-30T07:53:13.405Z,11.40
2022-09-30T07:54:18.301Z,11.30
2022-09-30T07:55:21.231Z,11.30
2022-09-30T07:56:23.717Z,11.40
2022-09-30T07:57:26.765Z,11.40
2022-09-30T07:58:28.695Z,11.40
2022-09-30T07:59:33.176Z,11.40
2022-09-30T08:00:42.406Z,11.40
2022-09-30T08:01:46.700Z,11.40
2022-09-30T08:02:49.637Z,11.50
2022-09-30T08:03:57.063Z,11.40
2022-09-30T08:05:00.006Z,11.50
2022-09-30T08:06:06.672Z,11.50
2022-09-30T08:07:09.919Z,11.50
2022-09-30T08:08:12.404Z,9.30
2022-09-30T08:09:17.665Z,11.50
2022-09-30T08:11:23.776Z,11.50
2022-09-30T08:12:26.702Z,11.60
2022-09-30T08:13:28.714Z,11.50
2022-09-30T08:14:31.777Z,11.60
2022-09-30T08:15:33.820Z,11.60
2022-09-30T08:16:36.730Z,11.60
2022-09-30T08:17:38.666Z,11.60
2022-09-30T08:18:41.574Z,11.60
2022-09-30T08:19:45.851Z,11.60
2022-09-30T08:20:48.015Z,11.70
2022-09-30T08:21:53.026Z,11.60
2022-09-30T08:22:55.475Z,11.60
2022-09-30T08:23:59.040Z,11.60
2022-09-30T08:25:01.977Z,11.60
2022-09-30T08:26:05.705Z,11.80
2022-09-30T08:27:12.724Z,11.70
2022-09-30T08:28:15.845Z,11.70
2022-09-30T08:29:20.679Z,11.60
2022-09-30T08:30:28.478Z,11.70
2022-09-30T08:31:30.723Z,11.70
2022-09-30T08:32:33.820Z,11.70
2022-09-30T08:33:37.215Z,11.80
2022-09-30T08:34:39.133Z,11.70
2022-09-30T08:35:43.574Z,11.80
2022-09-30T08:36:46.973Z,11.90
2022-09-30T08:37:51.512Z,11.90
2022-09-30T08:38:55.166Z,11.80
2022-09-30T08:39:57.050Z,11.90
2022-09-30T08:41:18.741Z,14.10
2022-09-30T08:42:40.294Z,12.00
2022-09-30T08:43:55.462Z,12.00
2022-09-30T08:45:10.470Z,12.00
2022-09-30T08:46:22.864Z,12.00
2022-09-30T08:47:41.278Z,12.10
2022-09-30T08:48:52.751Z,12.20
2022-09-30T08:50:02.232Z,12.30
2022-09-30T08:51:17.498Z,12.20
2022-09-30T08:52:37.375Z,12.30
2022-09-30T08:53:49.389Z,12.30
2022-09-30T08:54:53.506Z,12.30
2022-09-30T08:56:02.272Z,12.40
2022-09-30T08:57:06.331Z,12.40
2022-09-30T08:58:19.021Z,12.30
2022-09-30T08:59:29.090Z,12.40
2022-09-30T09:00:32.206Z,12.30
2022-09-30T09:01:36.600Z,12.40
2022-09-30T09:02:47.236Z,12.40
2022-09-30T09:03:50.213Z,12.40
2022-09-30T09:04:52.743Z,12.40
2022-09-30T09:06:04.438Z,12.40
2022-09-30T09:07:15.232Z,12.40
2022-09-30T09:08:25.985Z,12.40
2022-09-30T09:09:40.431Z,12.40
2022-09-30T09:10:45.333Z,12.50
2022-09-30T09:12:00.846Z,12.50
2022-09-30T09:13:13.353Z,12.50
2022-09-30T09:14:28.860Z,12.60
2022-09-30T09:15:48.673Z,12.50
2022-09-30T09:17:01.110Z,12.60
2022-09-30T09:18:34.950Z,12.70
2022-09-30T09:19:43.629Z,12.80
2022-09-30T09:20:54.487Z,12.70
2022-09-30T09:22:00.616Z,12.70
2022-09-30T09:23:08.209Z,12.70
2022-09-30T09:24:16.978Z,12.80
2022-09-30T09:25:23.123Z,12.70
2022-09-30T09:26:27.146Z,12.70
2022-09-30T09:27:38.674Z,12.80
2022-09-30T09:28:50.357Z,12.90
2022-09-30T09:30:12.501Z,13.00
2022-09-30T09:31:18.679Z,13.00
2022-09-30T09:32:20.652Z,13.10
2022-09-30T09:33:29.687Z,13.20
2022-09-30T09:34:31.668Z,13.30
2022-09-30T09:35:46.505Z,13.40
2022-09-30T09:37:03.641Z,13.40
2022-09-30T09:38:26.229Z,13.50
2022-09-30T09:39:44.639Z,13.50
2022-09-30T09:40:57.488Z,13.60
2022-09-30T09:42:06.138Z,13.80
2022-09-30T09:43:19.145Z,13.80
2022-09-30T09:44:29.705Z,13.80
2022-09-30T09:45:38.748Z,13.80
2022-09-30T09:46:46.455Z,13.80
2022-09-30T09:47:51.566Z,13.80
2022-09-30T09:49:31.998Z,13.80
2022-09-30T09:50:41.916Z,13.90
2022-09-30T09:51:49.212Z,13.80
2022-09-30T09:53:16.787Z,13.90
2022-09-30T09:54:23.351Z,13.90
2022-09-30T09:55:25.366Z,13.90
2022-09-30T09:56:32.691Z,13.90
2022-09-30T09:57:34.680Z,14.00
2022-09-30T09:58:43.885Z,14.10
2022-09-30T09:59:55.910Z,14.10
2022-09-30T10:01:32.250Z,14.10
2022-09-30T10:02:35.949Z,14.10
2022-09-30T10:03:39.281Z,14.10
2022-09-30T10:04:59.885Z,14.10
2022-09-30T10:06:05.994Z,14.10
2022-09-30T10:07:15.373Z,14.20
2022-09-30T10:08:19.701Z,14.10
2022-09-30T10:09:32.441Z,14.10
2022-09-30T10:10:44.645Z,14.10
2022-09-30T10:11:47.549Z,14.10
2022-09-30T10:12:50.784Z,14.00
2022-09-30T10:14:00.551Z,14.00
2022-09-30T10:15:20.874Z,14.00
2022-09-30T10:16:32.202Z,14.00
2022-09-30T10:17:35.704Z,14.10
2022-09-30T10:18:39.641Z,14.00
2022-09-30T10:19:49.847Z,14.00
2022-09-30T10:20:56.254Z,14.00
2022-09-30T10:22:19.153Z,14.10
2022-09-30T10:23:26.838Z,14.00
2022-09-30T10:24:32.527Z,14.00
2022-09-30T10:25:34.667Z,14.10
2022-09-30T10:26:48.804Z,14.00
2022-09-30T10:27:55.214Z,14.10
2022-09-30T10:29:00.103Z,14.10
2022-09-30T10:30:02.315Z,14.10
2022-09-30T10:31:07.801Z,14.20
2022-09-30T10:32:10.219Z,14.30
2022-09-30T10:33:19.828Z,14.30
2022-09-30T10:34:27.125Z,14.40
2022-09-30T10:35:29.157Z,14.50
2022-09-30T10:36:34.314Z,14.60
2022-09-30T10:37:36.293Z,14.70
2022-09-30T10:38:54.718Z,12.80
2022-09-30T10:40:03.115Z,14.80
2022-09-30T10:41:06.595Z,14.90
2022-09-30T10:42:17.190Z,14.90
2022-09-30T10:43:26.256Z,14.90
2022-09-30T10:44:29.995Z,14.90
2022-09-30T10:45:36.672Z,14.90
2022-09-30T10:46:41.272Z,15.00
2022-09-30T10:47:46.362Z,15.00
2022-09-30T10:48:51.702Z,15.10
2022-09-30T10:49:59.157Z,15.10
2022-09-30T10:51:01.289Z,15.10
2022-09-30T10:52:04.533Z,15.10
2022-09-30T10:53:15.799Z,15.00
2022-09-30T10:54:36.158Z,15.00
2022-09-30T10:55:44.178Z,14.90
2022-09-30T10:56:47.197Z,14.90
2022-09-30T10:57:52.868Z,15.00
2022-09-30T10:58:57.576Z,14.90
2022-09-30T11:00:05.633Z,14.90
2022-09-30T11:01:17.200Z,15.00
2022-09-30T11:02:29.585Z,15.00
2022-09-30T11:03:37.822Z,15.00
2022-09-30T11:04:47.799Z,15.10
2022-09-30T11:05:50.028Z,15.10
2022-09-30T11:06:58.960Z,15.10
2022-09-30T11:08:04.787Z,15.10
2022-09-30T11:09:14.272Z,15.20
2022-09-30T11:10:35.749Z,15.20
2022-09-30T11:11:42.550Z,15.20
2022-09-30T11:12:50.452Z,15.20
2022-09-30T11:13:58.402Z,15.30
2022-09-30T11:15:09.200Z,15.30
2022-09-30T11:16:22.248Z,15.30
2022-09-30T11:17:32.340Z,15.30
2022-09-30T11:18:41.245Z,15.40
2022-09-30T11:19:50.538Z,15.40
2022-09-30T11:20:58.542Z,15.40
2022-09-30T11:22:14.686Z,15.40
2022-09-30T11:23:23.646Z,15.50
2022-09-30T11:24:33.270Z,15.50
2022-09-30T11:25:44.030Z,15.50
2022-09-30T11:26:57.690Z,15.50
2022-09-30T11:28:15.283Z,15.50
2022-09-30T11:29:37.284Z,15.50
2022-09-30T11:30:43.831Z,15.60
2022-09-30T11:31:54.122Z,15.60
2022-09-30T11:33:11.206Z,15.70
2022-09-30T11:34:31.271Z,15.70
2022-09-30T11:35:47.250Z,15.70
2022-09-30T11:36:56.938Z,15.70
2022-09-30T11:38:10.819Z,15.70
2022-09-30T11:39:36.180Z,15.80
2022-09-30T11:40:43.228Z,15.80
2022-09-30T11:41:52.605Z,15.90
2022-09-30T11:43:05.321Z,15.90
2022-09-30T11:44:24.269Z,15.90
2022-09-30T11:45:35.893Z,15.90
2022-09-30T11:47:06.259Z,15.90
2022-09-30T11:48:32.631Z,15.90
2022-09-30T11:49:54.201Z,15.80
2022-09-30T11:51:06.761Z,15.80
2022-09-30T11:52:17.923Z,15.80
2022-09-30T11:53:31.081Z,15.80
2022-09-30T11:54:47.298Z,15.90
2022-09-30T11:56:09.818Z,15.90
2022-09-30T11:57:21.784Z,15.90
2022-09-30T11:58:40.878Z,15.90
2022-09-30T11:59:49.238Z,15.90
2022-09-30T12:00:56.310Z,15.90
2022-09-30T12:02:02.929Z,15.90
2022-09-30T12:03:11.000Z,15.80
2022-09-30T12:04:18.467Z,15.80
2022-09-30T12:05:25.908Z,15.80
2022-09-30T12:06:33.410Z,15.80
2022-09-30T12:07:43.278Z,15.70
2022-09-30T12:08:50.469Z,15.80
2022-09-30T12:09:56.957Z,15.80
2022-09-30T12:11:03.802Z,15.80
2022-09-30T12:12:16.069Z,15.80
2022-09-30T12:13:25.191Z,15.80
2022-09-30T12:14:34.415Z,15.80
2022-09-30T12:15:37.357Z,15.80
2022-09-30T12:16:41.084Z,15.90
2022-09-30T12:17:48.422Z,15.90
2022-09-30T12:18:57.301Z,15.90
2022-09-30T12:20:07.930Z,15.80
2022-09-30T12:21:18.446Z,15.80
2022-09-30T12:22:25.853Z,15.80
2022-09-30T12:23:33.752Z,15.90
2022-09-30T12:24:38.969Z,15.90
2022-09-30T12:25:45.614Z,15.90
2022-09-30T12:26:48.927Z,15.90
2022-09-30T12:27:56.942Z,16.00
2022-09-30T12:29:24.164Z,15.90
2022-09-30T12:30:29.645Z,16.00
2022-09-30T12:32:09.031Z,16.00
2022-09-30T12:33:48.745Z,16.00
2022-09-30T12:35:03.021Z,16.00
2022-09-30T12:36:28.608Z,16.00
2022-09-30T12:37:54.830Z,16.10
2022-09-30T12:39:34.731Z,16.10
2022-09-30T12:40:53.350Z,16.10
2022-09-30T12:42:07.177Z,16.10
2022-09-30T12:43:47.447Z,16.10
2022-09-30T12:45:09.293Z,16.10
2022-09-30T12:46:17.454Z,16.10
2022-09-30T12:47:37.583Z,16.20
2022-09-30T12:48:44.020Z,16.20
2022-09-30T12:49:48.413Z,16.20
2022-09-30T12:50:53.053Z,16.20
2022-09-30T12:51:59.184Z,16.20
2022-09-30T12:53:13.874Z,16.20
2022-09-30T12:54:20.710Z,16.30
2022-09-30T12:55:29.051Z,16.30
2022-09-30T12:56:33.966Z,16.30
2022-09-30T12:57:41.375Z,16.30
2022-09-30T12:58:49.554Z,16.30
2022-09-30T12:59:57.373Z,16.30
2022-09-30T13:01:02.789Z,16.30
2022-09-30T13:02:08.035Z,16.30
2022-09-30T13:03:17.240Z,16.30
2022-09-30T13:04:33.167Z,16.30
2022-09-30T13:05:54.255Z,16.20
2022-09-30T13:07:20.150Z,16.20
2022-09-30T13:08:48.318Z,16.30
2022-09-30T13:10:02.838Z,16.20
2022-09-30T13:11:07.894Z,16.30
2022-09-30T13:12:25.418Z,16.30
2022-09-30T13:13:32.317Z,16.30
2022-09-30T13:14:39.362Z,16.30
2022-09-30T13:15:44.294Z,16.30
2022-09-30T13:17:21.037Z,16.30
2022-09-30T13:19:02.169Z,16.30
2022-09-30T13:20:51.380Z,16.30
2022-09-30T13:22:13.305Z,16.30
2022-09-30T13:23:36.966Z,16.30
2022-09-30T13:25:05.519Z,16.30
2022-09-30T13:26:39.293Z,16.30
2022-09-30T13:27:43.363Z,16.30
2022-09-30T13:28:46.412Z,16.30
2022-09-30T13:29:49.661Z,16.30
2022-09-30T13:31:14.515Z,16.30
2022-09-30T13:32:33.813Z,16.30
2022-09-30T13:33:44.338Z,16.30
2022-09-30T13:35:20.812Z,16.40
2022-09-30T13:36:29.253Z,16.40
2022-09-30T13:37:40.540Z,16.40
2022-09-30T13:38:42.513Z,16.40
2022-09-30T13:39:49.250Z,16.40
2022-09-30T13:41:03.792Z,16.40
2022-09-30T13:42:16.262Z,16.50
2022-09-30T13:43:24.173Z,16.40
2022-09-30T13:44:33.742Z,16.40
2022-09-30T13:45:39.422Z,16.50
2022-09-30T13:46:50.486Z,16.40
2022-09-30T13:48:07.358Z,16.50
2022-09-30T13:49:18.467Z,16.50
2022-09-30T13:50:26.101Z,16.50
2022-09-30T13:51:33.106Z,16.50
2022-09-30T13:52:41.789Z,16.50
2022-09-30T13:53:50.514Z,16.50
2022-09-30T13:54:55.187Z,16.60
2022-09-30T13:56:00.706Z,16.60
2022-09-30T13:57:05.127Z,16.60
2022-09-30T13:58:24.194Z,16.50
2022-09-30T13:59:47.311Z,16.60
2022-09-30T14:00:59.414Z,16.60
2022-09-30T14:02:32.674Z,16.60
2022-09-30T14:03:49.648Z,16.70
2022-09-30T14:05:06.822Z,16.70
2022-09-30T14:06:20.348Z,16.70
2022-09-30T14:07:38.063Z,16.60
2022-09-30T14:09:06.487Z,16.70
2022-09-30T14:10:28.220Z,16.60
2022-09-30T14:12:12.287Z,16.60
2022-09-30T14:13:32.421Z,16.60
2022-09-30T14:15:08.897Z,16.60
2022-09-30T14:16:50.823Z,16.60
2022-09-30T14:18:22.350Z,16.60
2022-09-30T14:20:10.756Z,16.60
2022-09-30T14:21:41.759Z,16.50
2022-09-30T14:22:45.006Z,16.50
2022-09-30T14:23:56.952Z,16.50
2022-09-30T14:24:59.150Z,16.50
2022-09-30T14:26:27.009Z,16.50
2022-09-30T14:27:41.009Z,16.50
2022-09-30T14:28:50.304Z,16.50
2022-09-30T14:30:00.493Z,16.50
2022-09-30T14:31:09.466Z,16.50
2022-09-30T14:32:13.810Z,16.50
2022-09-30T14:33:25.342Z,16.50
2022-09-30T14:34:29.547Z,16.50
2022-09-30T14:35:34.703Z,16.40
2022-09-30T14:36:36.687Z,16.40
2022-09-30T14:37:46.246Z,16.50
2022-09-30T14:38:52.323Z,16.50
2022-09-30T14:39:55.910Z,16.50
2022-09-30T14:41:00.869Z,16.50
2022-09-30T14:42:04.004Z,16.50
2022-09-30T14:43:07.992Z,16.40